createdAt,value
2018-10-16T00:03:24.275Z,13.30
2018-10-16T00:06:57.526Z,13.30
2018-10-16T00:10:36.317Z,13.30
2018-10-16T00:14:09.545Z,13.20
2018-10-16T00:17:42.797Z,13.20
2018-10-16T00:21:16.039Z,13.10
2018-10-16T00:24:49.272Z,13.00
2018-10-16T00:28:22.503Z,13.00
2018-10-16T00:31:55.758Z,12.90
2018-10-16T00:35:28.998Z,12.90
2018-10-16T00:39:02.229Z,12.80
2018-10-16T00:42:35.460Z,12.80
2018-10-16T00:46:08.709Z,12.80
2018-10-16T00:49:41.949Z,12.80
2018-10-16T00:53:15.180Z,12.80
2018-10-16T00:56:48.434Z,12.80
2018-10-16T01:00:21.719Z,12.70
2018-10-16T01:03:54.927Z,12.70
2018-10-16T01:07:28.209Z,12.70
2018-10-16T01:11:01.459Z,12.60
2018-10-16T01:14:34.698Z,12.60
2018-10-16T01:18:07.915Z,12.60
2018-10-16T01:21:41.140Z,12.50
2018-10-16T01:25:14.421Z,12.50
2018-10-16T01:28:47.646Z,12.40
2018-10-16T01:32:20.883Z,12.40
2018-10-16T01:35:54.108Z,12.40
2018-10-16T01:39:27.335Z,12.30
2018-10-16T01:43:00.531Z,12.30
2018-10-16T01:46:33.744Z,12.30
2018-10-16T01:50:07.198Z,12.30
2018-10-16T01:53:40.420Z,12.20
2018-10-16T01:57:13.627Z,12.20
2018-10-16T02:00:46.844Z,12.20
2018-10-16T02:04:20.059Z,12.20
2018-10-16T02:07:53.271Z,12.20
2018-10-16T02:11:26.489Z,12.10
2018-10-16T02:14:59.721Z,12.10
2018-10-16T02:18:32.952Z,12.10
2018-10-16T02:22:06.222Z,12.00
2018-10-16T02:25:39.449Z,11.90
2018-10-16T02:29:12.670Z,11.90
2018-10-16T02:32:45.889Z,11.90
2018-10-16T02:36:19.183Z,11.80
2018-10-16T02:39:52.420Z,11.80
2018-10-16T02:43:25.644Z,11.80
2018-10-16T02:46:58.850Z,11.80
2018-10-16T02:50:32.073Z,11.90
2018-10-16T02:54:05.394Z,11.90
2018-10-16T02:57:38.620Z,11.90
2018-10-16T03:01:11.851Z,11.90
2018-10-16T03:04:45.064Z,11.70
2018-10-16T03:08:18.294Z,11.70
2018-10-16T03:11:51.532Z,11.70
2018-10-16T03:15:24.765Z,11.70
2018-10-16T03:18:57.989Z,11.70
2018-10-16T03:22:31.192Z,11.60
2018-10-16T03:26:04.428Z,11.50
2018-10-16T03:29:37.675Z,11.50
2018-10-16T03:33:10.905Z,11.40
2018-10-16T03:36:44.107Z,11.40
2018-10-16T03:40:17.330Z,11.40
2018-10-16T03:43:57.853Z,11.30
2018-10-16T03:47:31.123Z,11.30
2018-10-16T03:51:04.412Z,11.30
2018-10-16T03:54:37.630Z,11.30
2018-10-16T03:58:10.851Z,11.30
2018-10-16T04:01:44.058Z,11.30
2018-10-16T04:05:17.275Z,11.30
2018-10-16T04:08:51.366Z,11.30
2018-10-16T04:12:24.668Z,11.30
2018-10-16T04:15:57.873Z,11.30
2018-10-16T04:19:31.088Z,11.30
2018-10-16T04:23:04.367Z,11.20
2018-10-16T04:26:37.581Z,11.20
2018-10-16T04:30:10.808Z,11.20
2018-10-16T04:33:44.108Z,11.20
2018-10-16T04:37:17.336Z,11.20
2018-10-16T04:40:50.551Z,11.10
2018-10-16T04:44:23.773Z,11.10
2018-10-16T04:47:56.990Z,11.10
2018-10-16T04:51:30.213Z,11.10
2018-10-16T04:55:03.488Z,11.00
2018-10-16T04:58:36.786Z,11.00
2018-10-16T05:02:10.004Z,10.90
2018-10-16T05:05:43.200Z,10.80
2018-10-16T05:09:16.416Z,10.70
2018-10-16T05:12:49.707Z,10.60
2018-10-16T05:16:22.919Z,10.60
2018-10-16T05:19:56.116Z,10.60
2018-10-16T05:23:29.324Z,10.60
2018-10-16T05:27:02.820Z,10.60
2018-10-16T05:30:36.158Z,10.60
2018-10-16T05:34:10.075Z,10.60
2018-10-16T05:37:43.296Z,10.60
2018-10-16T05:41:16.499Z,10.50
2018-10-16T05:44:49.701Z,10.60
2018-10-16T05:48:22.947Z,10.60
2018-10-16T05:51:56.156Z,10.60
2018-10-16T05:55:29.371Z,10.50
2018-10-16T05:59:02.590Z,10.50
2018-10-16T06:02:35.800Z,10.50
2018-10-16T06:06:09.012Z,10.50
2018-10-16T06:09:42.229Z,10.60
2018-10-16T06:13:15.443Z,10.60
2018-10-16T06:16:48.678Z,10.70
2018-10-16T06:20:22.000Z,10.70
2018-10-16T06:23:55.211Z,10.70
2018-10-16T06:27:28.419Z,10.70
2018-10-16T06:31:01.635Z,10.70
2018-10-16T06:34:34.852Z,10.80
2018-10-16T06:38:08.072Z,10.80
2018-10-16T06:41:41.304Z,10.90
2018-10-16T06:45:14.523Z,10.90
2018-10-16T06:48:48.065Z,10.80
2018-10-16T06:52:21.015Z,10.80
2018-10-16T06:55:54.250Z,10.90
2018-10-16T06:59:27.584Z,10.90
2018-10-16T07:03:00.883Z,11.00
2018-10-16T07:06:34.443Z,11.00
2018-10-16T07:10:08.391Z,11.10
2018-10-16T07:13:41.586Z,11.10
2018-10-16T07:17:14.814Z,11.00
2018-10-16T07:20:48.036Z,11.10
2018-10-16T07:24:21.244Z,11.00
2018-10-16T07:27:54.476Z,11.10
2018-10-16T07:31:27.688Z,11.20
2018-10-16T07:35:00.916Z,11.30
2018-10-16T07:38:34.234Z,11.30
2018-10-16T07:42:07.429Z,11.30
2018-10-16T07:45:40.644Z,11.40
2018-10-16T07:49:13.870Z,11.50
2018-10-16T07:52:47.080Z,11.60
2018-10-16T07:56:20.289Z,11.70
2018-10-16T07:59:53.499Z,11.80
2018-10-16T08:03:26.715Z,11.90
2018-10-16T08:06:59.907Z,12.00
2018-10-16T08:10:33.128Z,12.10
2018-10-16T08:14:06.632Z,12.10
2018-10-16T08:17:40.675Z,12.30
2018-10-16T08:21:13.904Z,12.40
2018-10-16T08:24:47.112Z,12.50
2018-10-16T08:28:20.322Z,12.60
2018-10-16T08:31:53.556Z,12.70
2018-10-16T08:35:26.767Z,12.80
2018-10-16T08:39:05.808Z,12.90
2018-10-16T08:44:47.656Z,13.00
2018-10-16T08:48:32.285Z,13.20
2018-10-16T08:52:05.524Z,13.40
2018-10-16T08:55:38.739Z,13.50
2018-10-16T08:59:11.970Z,13.60
2018-10-16T09:02:45.190Z,13.80
2018-10-16T09:06:18.409Z,14.00
2018-10-16T09:09:51.628Z,14.20
2018-10-16T09:13:24.832Z,14.50
2018-10-16T09:16:58.073Z,14.70
2018-10-16T09:20:31.293Z,14.90
2018-10-16T09:24:04.523Z,15.00
2018-10-16T09:27:38.202Z,15.10
2018-10-16T09:31:11.437Z,15.20
2018-10-16T09:34:44.653Z,15.30
2018-10-16T09:38:17.868Z,15.50
2018-10-16T09:41:51.075Z,15.60
2018-10-16T09:45:24.318Z,15.80
2018-10-16T09:48:57.532Z,16.00
2018-10-16T09:52:30.736Z,16.10
2018-10-16T09:56:04.183Z,16.30
2018-10-16T09:59:37.391Z,16.50
2018-10-16T10:03:10.616Z,16.60
2018-10-16T10:06:43.824Z,16.70
2018-10-16T10:10:17.065Z,16.90
2018-10-16T10:13:50.289Z,17.10
2018-10-16T10:17:23.507Z,17.20
2018-10-16T10:20:56.724Z,17.30
2018-10-16T10:24:29.940Z,17.40
2018-10-16T10:28:03.184Z,17.50
2018-10-16T10:31:36.391Z,17.70
2018-10-16T10:35:11.332Z,17.90
2018-10-16T10:38:44.566Z,18.10
2018-10-16T10:42:17.844Z,18.30
2018-10-16T10:45:51.002Z,18.50
2018-10-16T10:49:24.225Z,18.70
2018-10-16T10:52:57.439Z,18.80
2018-10-16T10:56:30.691Z,19.00
2018-10-16T11:00:04.038Z,19.10
2018-10-16T11:03:37.460Z,19.20
2018-10-16T11:07:10.478Z,19.30
2018-10-16T11:10:43.690Z,19.40
2018-10-16T11:14:16.906Z,19.50
2018-10-16T11:17:50.129Z,19.60
2018-10-16T11:21:23.349Z,19.80
2018-10-16T11:24:56.561Z,19.90
2018-10-16T11:28:29.771Z,20.00
2018-10-16T11:32:02.991Z,20.10
2018-10-16T11:35:36.212Z,20.20
2018-10-16T11:39:11.340Z,20.20
2018-10-16T11:42:44.527Z,20.30
2018-10-16T11:46:17.739Z,20.50
2018-10-16T11:49:50.946Z,20.60
2018-10-16T11:53:24.187Z,20.70
2018-10-16T11:56:57.407Z,20.80
2018-10-16T12:00:30.621Z,20.80
2018-10-16T12:04:03.885Z,20.90
2018-10-16T12:07:37.091Z,21.00
2018-10-16T12:11:10.349Z,21.00
2018-10-16T12:14:43.530Z,21.10
2018-10-16T12:18:23.725Z,21.20
2018-10-16T12:21:56.931Z,21.20
2018-10-16T12:25:30.175Z,21.20
2018-10-16T12:29:03.480Z,21.30
2018-10-16T12:32:36.831Z,21.40
2018-10-16T12:36:10.054Z,21.60
2018-10-16T12:39:43.281Z,21.70
2018-10-16T12:43:16.557Z,21.70
2018-10-16T12:46:49.708Z,21.80
2018-10-16T12:50:22.983Z,21.90
2018-10-16T12:53:56.207Z,21.90
2018-10-16T12:57:29.459Z,21.90
2018-10-16T13:01:02.604Z,21.90
2018-10-16T13:04:35.835Z,21.90
2018-10-16T13:08:09.087Z,21.90
2018-10-16T13:11:42.953Z,22.00
2018-10-16T13:15:16.850Z,21.90
2018-10-16T13:18:50.147Z,21.80
2018-10-16T13:22:23.371Z,21.70
2018-10-16T13:25:56.635Z,21.60
2018-10-16T13:29:29.951Z,21.50
2018-10-16T13:33:03.048Z,21.50
2018-10-16T13:36:36.263Z,21.50
2018-10-16T13:40:10.337Z,21.50
2018-10-16T13:43:43.496Z,21.40
2018-10-16T13:47:16.724Z,21.50
2018-10-16T13:50:49.940Z,21.40
2018-10-16T13:54:23.155Z,21.50
2018-10-16T13:57:56.438Z,21.50
2018-10-16T14:01:29.623Z,21.50
2018-10-16T14:05:02.930Z,21.50
2018-10-16T14:08:36.069Z,21.50
2018-10-16T14:12:09.561Z,21.60
2018-10-16T14:15:42.775Z,21.60
2018-10-16T14:19:15.988Z,21.60
2018-10-16T14:22:49.197Z,21.60
2018-10-16T14:26:22.472Z,21.60
2018-10-16T14:29:55.710Z,21.60
2018-10-16T14:33:28.931Z,21.60
2018-10-16T14:37:02.166Z,21.60
2018-10-16T14:40:35.487Z,21.60
2018-10-16T14:44:09.349Z,21.50
2018-10-16T14:47:42.511Z,21.50
2018-10-16T14:51:15.759Z,21.40
2018-10-16T14:54:48.984Z,21.30
2018-10-16T14:58:22.212Z,21.20
2018-10-16T15:01:55.463Z,21.10
2018-10-16T15:05:28.672Z,21.10
2018-10-16T15:09:01.893Z,21.00
2018-10-16T15:12:35.095Z,21.00
2018-10-16T15:16:08.770Z,21.00
2018-10-16T15:19:41.915Z,20.90
2018-10-16T15:23:15.128Z,20.80
2018-10-16T15:26:48.341Z,20.80
2018-10-16T15:30:21.547Z,20.80
2018-10-16T15:33:54.798Z,20.80
2018-10-16T15:37:27.996Z,20.80
2018-10-16T15:41:01.241Z,20.80
2018-10-16T15:44:34.449Z,20.80
2018-10-16T15:48:07.681Z,20.90
2018-10-16T15:51:40.900Z,20.90
2018-10-16T15:55:14.124Z,20.90
2018-10-16T15:58:47.334Z,20.90
2018-10-16T16:02:20.549Z,20.80
2018-10-16T16:05:53.801Z,20.70
2018-10-16T16:09:26.985Z,20.60
2018-10-16T16:13:03.134Z,20.60
2018-10-16T16:16:36.365Z,20.40
2018-10-16T16:20:11.276Z,20.30
2018-10-16T16:23:44.495Z,20.20
2018-10-16T16:27:17.724Z,20.10
2018-10-16T16:30:50.986Z,20.00
2018-10-16T16:34:24.207Z,20.00
2018-10-16T16:37:57.477Z,20.00
2018-10-16T16:41:30.671Z,19.90
2018-10-16T16:45:03.899Z,19.90
2018-10-16T16:48:37.127Z,19.80
2018-10-16T16:52:10.456Z,19.70
2018-10-16T16:55:43.596Z,19.60
2018-10-16T16:59:16.840Z,19.50
2018-10-16T17:02:50.063Z,19.30
2018-10-16T17:06:23.277Z,19.10
2018-10-16T17:09:56.524Z,19.00
2018-10-16T17:13:29.743Z,18.80
2018-10-16T17:17:02.945Z,18.70
2018-10-16T17:20:36.175Z,18.50
2018-10-16T17:24:09.395Z,18.50
2018-10-16T17:27:43.363Z,18.40
2018-10-16T17:31:16.664Z,18.40
2018-10-16T17:34:49.891Z,18.30
2018-10-16T17:38:23.144Z,18.20
2018-10-16T17:41:56.378Z,18.10
2018-10-16T17:45:29.591Z,18.00
2018-10-16T17:49:03.070Z,17.90
2018-10-16T17:52:36.459Z,17.90
2018-10-16T17:56:09.977Z,17.90
2018-10-16T17:59:43.223Z,17.80
2018-10-16T18:03:16.442Z,17.80
2018-10-16T18:06:49.668Z,17.80
2018-10-16T18:10:22.887Z,17.80
2018-10-16T18:13:56.108Z,17.80
2018-10-16T18:17:29.354Z,17.80
2018-10-16T18:21:02.572Z,17.80
2018-10-16T18:24:35.791Z,17.70
2018-10-16T18:28:09.004Z,17.70
2018-10-16T18:31:42.225Z,17.60
2018-10-16T18:35:15.437Z,17.50
2018-10-16T18:38:48.653Z,17.40
2018-10-16T18:42:21.970Z,17.30
2018-10-16T18:45:55.196Z,17.20
2018-10-16T18:49:28.410Z,17.10
2018-10-16T18:53:01.818Z,17.00
2018-10-16T18:56:35.040Z,17.00
2018-10-16T19:00:11.343Z,17.00
2018-10-16T19:03:45.406Z,17.00
2018-10-16T19:07:18.619Z,17.00
2018-10-16T19:10:51.831Z,17.00
2018-10-16T19:14:25.059Z,17.00
2018-10-16T19:17:58.308Z,17.00
2018-10-16T19:21:31.592Z,16.90
2018-10-16T19:25:05.360Z,16.80
2018-10-16T19:28:38.604Z,16.80
2018-10-16T19:32:11.845Z,16.70
2018-10-16T19:35:45.075Z,16.70
2018-10-16T19:39:18.330Z,16.60
2018-10-16T19:42:51.568Z,16.60
2018-10-16T19:46:24.791Z,16.60
2018-10-16T19:49:58.651Z,16.50
2018-10-16T19:53:31.875Z,16.50
2018-10-16T19:57:05.199Z,16.40
2018-10-16T20:00:38.400Z,16.30
2018-10-16T20:04:11.644Z,16.30
2018-10-16T20:07:44.860Z,16.20
2018-10-16T20:11:18.133Z,16.10
2018-10-16T20:14:51.353Z,16.00
2018-10-16T20:18:24.619Z,15.90
2018-10-16T20:21:57.840Z,15.90
2018-10-16T20:25:31.064Z,15.80
2018-10-16T20:29:04.282Z,15.80
2018-10-16T20:32:37.507Z,15.70
2018-10-16T20:36:10.743Z,15.70
2018-10-16T20:39:43.968Z,15.60
2018-10-16T20:43:17.274Z,15.60
2018-10-16T20:46:50.432Z,15.60
2018-10-16T20:50:23.669Z,15.60
2018-10-16T20:53:56.926Z,15.60
2018-10-16T20:57:30.151Z,15.50
2018-10-16T21:01:03.468Z,15.40
2018-10-16T21:04:36.692Z,15.30
2018-10-16T21:08:10.062Z,15.20
2018-10-16T21:11:43.327Z,15.10
2018-10-16T21:15:16.539Z,15.00
2018-10-16T21:18:49.763Z,15.00
2018-10-16T21:22:22.976Z,15.00
2018-10-16T21:25:56.195Z,15.00
2018-10-16T21:29:29.535Z,15.00
2018-10-16T21:33:02.746Z,15.00
2018-10-16T21:36:35.972Z,15.00
2018-10-16T21:40:09.590Z,14.90
2018-10-16T21:43:42.787Z,14.90
2018-10-16T21:47:16.053Z,14.80
2018-10-16T21:50:49.209Z,14.70
2018-10-16T21:54:22.423Z,14.70
2018-10-16T21:57:55.631Z,14.60
2018-10-16T22:01:34.192Z,14.50
2018-10-16T22:05:07.414Z,14.40
2018-10-16T22:08:40.640Z,14.40
2018-10-16T22:12:13.848Z,14.30
2018-10-16T22:15:47.055Z,14.30
2018-10-16T22:19:20.262Z,14.30
2018-10-16T22:22:53.501Z,14.20
2018-10-16T22:26:26.717Z,14.20
2018-10-16T22:29:59.927Z,14.10
2018-10-16T22:33:33.156Z,14.10
2018-10-16T22:37:06.420Z,14.10
2018-10-16T22:40:39.705Z,14.00
2018-10-16T22:44:12.939Z,14.00
2018-10-16T22:47:46.159Z,13.90
2018-10-16T22:51:19.366Z,13.90
2018-10-16T22:54:52.593Z,13.80
2018-10-16T22:58:25.831Z,13.80
2018-10-16T23:01:59.067Z,13.70
2018-10-16T23:05:32.269Z,13.60
2018-10-16T23:09:07.723Z,13.60
2018-10-16T23:12:41.043Z,13.60
2018-10-16T23:16:14.243Z,13.50
2018-10-16T23:19:47.454Z,13.50
2018-10-16T23:23:20.671Z,13.50
2018-10-16T23:26:53.897Z,13.50
2018-10-16T23:30:27.095Z,13.50
2018-10-16T23:34:00.332Z,13.50
2018-10-16T23:37:33.551Z,13.50
2018-10-16T23:41:06.766Z,13.40
2018-10-16T23:44:39.980Z,13.40
2018-10-16T23:48:13.228Z,13.40
2018-10-16T23:51:46.439Z,13.40
2018-10-16T23:55:19.646Z,13.40
2018-10-16T23:58:52.875Z,13.40
